Time;durP1;ratioP1;P1;durP2;ratioP2;P2;SDS_P1;SDS_P2;PMS_P1;PMS_P2;Temp;Humidity;BMP_temperature;BMP_pressure;BME280_temperature;BME280_humidity;BME280_pressure;Samples;Min_cycle;Max_cycle;Signal;HPM_P1;HPM_P2
2023/01/22 00:01:28;;;;;;;;;;;1.70;99.90;;;;;;5047035;28;20402;-62
2023/01/22 00:03:54;;;;;;;;;;;1.70;99.90;;;;;;5049244;28;19920;-61
2023/01/22 00:06:19;;;;;;;;;;;1.70;99.90;;;;;;5044730;28;19977;-62
2023/01/22 00:08:47;;;;;;;;;;;1.70;99.90;;;;;;5041260;28;19920;-61
2023/01/22 00:11:12;;;;;;;;;;;1.70;99.90;;;;;;5044568;28;19913;-60
2023/01/22 00:13:38;;;;;;;;;;;1.70;99.90;;;;;;5045522;28;20295;-62
2023/01/22 00:16:04;;;;;;;;;;;1.80;99.90;;;;;;5050587;28;19912;-61
2023/01/22 00:18:29;;;;;;;;;;;1.80;99.90;;;;;;5041732;28;19927;-61
2023/01/22 00:20:55;;;;;;;;;;;1.90;99.90;;;;;;5049301;28;19913;-61
2023/01/22 00:23:21;;;;;;;;;;;1.90;99.90;;;;;;5047052;28;19923;-61
2023/01/22 00:25:46;;;;;;;;;;;2.00;99.90;;;;;;5044893;28;20350;-61
2023/01/22 00:28:12;;;;;;;;;;;2.00;99.90;;;;;;5044652;28;20004;-61
2023/01/22 00:30:38;;;;;;;;;;;2.00;99.90;;;;;;5050275;28;19919;-60
2023/01/22 00:33:03;;;;;;;;;;;2.00;99.90;;;;;;5050053;28;19951;-60
2023/01/22 00:35:29;;;;;;;;;;;2.00;99.90;;;;;;5051381;28;19971;-58
2023/01/22 00:37:54;;;;;;;;;;;2.10;99.90;;;;;;5047432;28;19913;-60
2023/01/22 00:40:20;;;;;;;;;;;2.10;99.90;;;;;;5054293;28;20009;-60
2023/01/22 00:42:45;;;;;;;;;;;2.10;99.90;;;;;;5055621;28;20580;-60
2023/01/22 00:45:14;;;;;;;;;;;2.10;99.90;;;;;;5048453;28;19920;-59
2023/01/22 00:47:40;;;;;;;;;;;2.10;99.90;;;;;;5045158;28;20062;-59
2023/01/22 00:50:06;;;;;;;;;;;2.10;99.90;;;;;;5054196;28;19921;-58
2023/01/22 00:52:31;;;;;;;;;;;2.10;99.90;;;;;;5055203;28;19912;-60
2023/01/22 00:54:57;;;;;;;;;;;2.10;99.90;;;;;;5055066;28;19958;-60
2023/01/22 00:57:22;;;;;;;;;;;2.10;99.90;;;;;;5046315;28;19913;-61
2023/01/22 00:59:48;;;;;;;;;;;2.10;99.90;;;;;;5046766;28;20306;-61
2023/01/22 01:02:14;;;;;;;;;;;2.00;99.90;;;;;;5048016;28;19916;-60
2023/01/22 01:04:39;;;;;;;;;;;2.00;99.90;;;;;;5044335;28;19912;-60
2023/01/22 01:07:04;;;;;;;;;;;2.00;99.90;;;;;;5049581;28;19912;-59
2023/01/22 01:09:30;;;;;;;;;;;1.90;99.90;;;;;;5040171;28;19912;-59
2023/01/22 01:11:55;;;;;;;;;;;1.90;99.90;;;;;;5045613;28;19912;-57
2023/01/22 01:14:21;;;;;;;;;;;1.90;99.90;;;;;;5046087;28;19944;-60
2023/01/22 01:16:48;;;;;;;;;;;1.90;99.90;;;;;;5049981;28;20299;-58
2023/01/22 01:19:14;;;;;;;;;;;1.90;99.90;;;;;;5042038;28;19913;-58
2023/01/22 01:21:40;;;;;;;;;;;1.90;99.90;;;;;;5048543;28;20451;-57
2023/01/22 01:24:05;;;;;;;;;;;1.90;99.90;;;;;;5047611;28;19917;-61
2023/01/22 01:26:32;;;;;;;;;;;1.90;99.90;;;;;;5045823;28;19912;-60
2023/01/22 01:28:57;;;;;;;;;;;1.90;99.90;;;;;;5051313;28;19913;-58
2023/01/22 01:31:24;;;;;;;;;;;1.90;99.90;;;;;;5051340;28;19920;-58
2023/01/22 01:33:50;;;;;;;;;;;1.90;99.90;;;;;;5047416;28;19913;-59
2023/01/22 01:36:17;;;;;;;;;;;1.80;99.90;;;;;;5045296;28;20438;-61
2023/01/22 01:38:43;;;;;;;;;;;1.80;99.90;;;;;;5051650;28;19917;-61
2023/01/22 01:41:10;;;;;;;;;;;1.80;99.90;;;;;;5049835;28;20433;-60
2023/01/22 01:43:36;;;;;;;;;;;1.80;99.90;;;;;;5050340;28;19925;-61
2023/01/22 01:46:03;;;;;;;;;;;1.80;99.90;;;;;;5051536;28;19990;-59
2023/01/22 01:48:36;;;;;;;;;;;1.80;99.90;;;;;;5050589;28;19921;-59
2023/01/22 01:51:07;;;;;;;;;;;1.70;99.90;;;;;;5045666;28;19983;-58
2023/01/22 01:53:33;;;;;;;;;;;1.70;99.90;;;;;;5049869;28;19912;-60
2023/01/22 01:56:00;;;;;;;;;;;1.70;99.90;;;;;;5050025;28;20333;-59
2023/01/22 01:58:27;;;;;;;;;;;1.70;99.90;;;;;;5049292;28;19920;-59
2023/01/22 02:00:56;;;;;;;;;;;1.70;99.90;;;;;;5052650;28;19913;-60
2023/01/22 02:03:22;;;;;;;;;;;1.70;99.90;;;;;;5051709;28;20325;-58
2023/01/22 02:05:47;;;;;;;;;;;1.70;99.90;;;;;;5047866;28;19917;-60
2023/01/22 02:08:13;;;;;;;;;;;1.70;99.90;;;;;;5050484;28;20970;-59
2023/01/22 02:10:39;;;;;;;;;;;1.70;99.90;;;;;;5047582;28;20284;-61
2023/01/22 02:13:09;;;;;;;;;;;1.70;99.90;;;;;;5051088;28;20028;-59
2023/01/22 02:15:35;;;;;;;;;;;1.70;99.90;;;;;;5047384;28;19913;-59
2023/01/22 02:18:01;;;;;;;;;;;1.70;99.90;;;;;;5048290;28;20008;-61
2023/01/22 02:20:26;;;;;;;;;;;1.70;99.90;;;;;;5051331;28;19920;-60
2023/01/22 02:22:52;;;;;;;;;;;1.60;99.90;;;;;;5050688;28;19923;-60
2023/01/22 02:25:18;;;;;;;;;;;1.60;99.90;;;;;;5045797;28;19963;-59
2023/01/22 02:27:43;;;;;;;;;;;1.60;99.90;;;;;;5047386;28;19921;-59
2023/01/22 02:30:09;;;;;;;;;;;1.60;99.90;;;;;;5046676;28;20294;-60
2023/01/22 02:32:34;;;;;;;;;;;1.60;99.90;;;;;;5052203;28;19913;-60
2023/01/22 02:35:00;;;;;;;;;;;1.60;99.90;;;;;;5047458;28;19919;-61
2023/01/22 02:37:25;;;;;;;;;;;1.60;99.90;;;;;;5048976;28;20485;-60
2023/01/22 02:39:50;;;;;;;;;;;1.60;99.90;;;;;;5047551;28;19913;-60
2023/01/22 02:42:16;;;;;;;;;;;1.60;99.90;;;;;;5048489;28;19944;-60
2023/01/22 02:44:41;;;;;;;;;;;1.60;99.90;;;;;;5045241;28;19913;-60
2023/01/22 02:47:07;;;;;;;;;;;1.70;99.90;;;;;;5049235;28;19956;-59
2023/01/22 02:49:32;;;;;;;;;;;1.60;99.90;;;;;;5047460;28;19936;-59
2023/01/22 02:51:58;;;;;;;;;;;1.60;99.90;;;;;;5048824;28;19917;-61
2023/01/22 02:54:23;;;;;;;;;;;1.70;99.90;;;;;;5046087;28;19916;-60
2023/01/22 02:56:49;;;;;;;;;;;1.60;99.90;;;;;;5048946;28;19978;-61
2023/01/22 02:59:14;;;;;;;;;;;1.60;99.90;;;;;;5046720;28;20413;-60
2023/01/22 03:01:40;;;;;;;;;;;1.60;99.90;;;;;;5045051;28;19925;-60
2023/01/22 03:04:09;;;;;;;;;;;1.70;99.90;;;;;;5048713;28;19932;-61
2023/01/22 03:06:36;;;;;;;;;;;1.70;99.90;;;;;;5049441;28;19952;-61
2023/01/22 03:09:01;;;;;;;;;;;1.60;99.90;;;;;;5048779;28;19913;-61
2023/01/22 03:11:28;;;;;;;;;;;1.60;99.90;;;;;;5044462;28;19967;-61
2023/01/22 03:22:07;;;;;;;;;;;1.60;99.90;;;;;;5048651;28;19923;-61
2023/01/22 03:24:33;;;;;;;;;;;1.70;99.90;;;;;;5047960;28;19978;-61
2023/01/22 03:26:58;;;;;;;;;;;1.60;99.90;;;;;;5050637;28;19994;-60
2023/01/22 03:29:24;;;;;;;;;;;1.60;99.90;;;;;;5042653;28;19999;-60
2023/01/22 03:31:49;;;;;;;;;;;1.60;99.90;;;;;;5053270;28;19921;-62
2023/01/22 03:34:15;;;;;;;;;;;1.50;99.90;;;;;;5048100;28;19913;-60
2023/01/22 03:36:41;;;;;;;;;;;1.60;99.90;;;;;;5048869;28;20409;-61
2023/01/22 03:39:06;;;;;;;;;;;1.60;99.90;;;;;;5044238;28;19917;-60
2023/01/22 03:41:32;;;;;;;;;;;1.50;99.90;;;;;;5049292;28;19917;-59
2023/01/22 03:44:00;;;;;;;;;;;1.50;99.90;;;;;;5050412;28;19913;-60
2023/01/22 03:46:26;;;;;;;;;;;1.60;99.90;;;;;;5045628;28;20011;-61
2023/01/22 03:48:51;;;;;;;;;;;1.50;99.90;;;;;;5042959;28;20454;-59
2023/01/22 03:51:17;;;;;;;;;;;1.50;99.90;;;;;;5044336;28;19928;-59
2023/01/22 03:53:43;;;;;;;;;;;1.50;99.90;;;;;;5044252;28;19966;-60
2023/01/22 03:56:10;;;;;;;;;;;1.50;99.90;;;;;;5050943;28;19913;-59
2023/01/22 03:58:35;;;;;;;;;;;1.50;99.90;;;;;;5049037;28;19923;-60
2023/01/22 04:01:02;;;;;;;;;;;1.40;99.90;;;;;;5046776;28;20003;-63
2023/01/22 04:03:28;;;;;;;;;;;1.50;99.90;;;;;;5047144;28;20012;-61
2023/01/22 04:05:53;;;;;;;;;;;1.40;99.90;;;;;;5049633;28;20019;-61
2023/01/22 04:08:19;;;;;;;;;;;1.50;99.90;;;;;;5050057;28;19928;-61
2023/01/22 04:10:45;;;;;;;;;;;1.50;99.90;;;;;;5046582;28;19920;-61
2023/01/22 04:13:10;;;;;;;;;;;1.50;99.90;;;;;;5048664;28;19913;-61
2023/01/22 04:15:35;;;;;;;;;;;1.50;99.90;;;;;;5046778;28;20375;-60
2023/01/22 04:18:01;;;;;;;;;;;1.40;99.90;;;;;;5047971;28;19935;-60
2023/01/22 04:20:26;;;;;;;;;;;1.50;99.90;;;;;;5047024;28;19913;-60
2023/01/22 04:22:52;;;;;;;;;;;1.40;99.90;;;;;;5049024;28;19921;-61
2023/01/22 04:25:17;;;;;;;;;;;1.50;99.90;;;;;;5044764;28;19996;-61
2023/01/22 04:27:43;;;;;;;;;;;1.50;99.90;;;;;;5044572;28;20398;-61
2023/01/22 04:30:09;;;;;;;;;;;1.50;99.90;;;;;;5045077;28;20342;-60
2023/01/22 04:32:34;;;;;;;;;;;1.60;99.90;;;;;;5042655;28;20006;-61
2023/01/22 04:35:00;;;;;;;;;;;1.50;99.90;;;;;;5051166;28;19983;-61
2023/01/22 04:37:25;;;;;;;;;;;1.50;99.90;;;;;;5048416;28;19917;-61
2023/01/22 04:39:51;;;;;;;;;;;1.60;99.90;;;;;;5049440;28;20295;-61
2023/01/22 04:42:17;;;;;;;;;;;1.60;99.90;;;;;;5046017;28;19925;-61
2023/01/22 04:44:42;;;;;;;;;;;1.60;99.90;;;;;;5047485;28;19939;-61
2023/01/22 04:47:08;;;;;;;;;;;1.60;99.90;;;;;;5045394;28;19917;-62
2023/01/22 04:49:33;;;;;;;;;;;1.60;99.90;;;;;;5070166;23;20019;-61
2023/01/22 04:51:59;;;;;;;;;;;1.60;99.90;;;;;;5062034;28;19920;-60
2023/01/22 04:54:24;;;;;;;;;;;1.60;99.90;;;;;;5067176;28;20568;-59
2023/01/22 04:56:50;;;;;;;;;;;1.50;99.90;;;;;;5065905;28;19927;-59
2023/01/22 04:59:15;;;;;;;;;;;1.50;99.90;;;;;;5064664;28;19916;-58
2023/01/22 05:01:41;;;;;;;;;;;1.60;99.90;;;;;;5065671;28;20386;-60
2023/01/22 05:04:06;;;;;;;;;;;1.60;99.90;;;;;;5067801;28;20049;-57
2023/01/22 05:06:32;;;;;;;;;;;1.60;99.90;;;;;;5072180;28;19916;-60
2023/01/22 05:08:57;;;;;;;;;;;1.60;99.90;;;;;;5065319;28;19917;-60
2023/01/22 05:11:23;;;;;;;;;;;1.60;99.90;;;;;;5063316;28;19988;-60
2023/01/22 05:13:48;;;;;;;;;;;1.60;99.90;;;;;;5069424;28;19927;-60
2023/01/22 05:16:13;;;;;;;;;;;1.60;99.90;;;;;;5070000;28;19935;-59
2023/01/22 05:18:39;;;;;;;;;;;1.60;99.90;;;;;;5071362;28;19920;-59
2023/01/22 05:21:04;;;;;;;;;;;1.60;99.90;;;;;;5066489;28;20378;-61
2023/01/22 05:23:30;;;;;;;;;;;1.60;99.90;;;;;;5067839;28;20362;-60
2023/01/22 05:25:55;;;;;;;;;;;1.60;99.90;;;;;;5063410;28;19917;-60
2023/01/22 05:28:21;;;;;;;;;;;1.60;99.90;;;;;;5065936;28;19912;-61
2023/01/22 05:30:46;;;;;;;;;;;1.60;99.90;;;;;;5067015;28;19916;-60
2023/01/22 05:33:12;;;;;;;;;;;1.60;99.90;;;;;;5063347;28;19919;-61
2023/01/22 05:35:37;;;;;;;;;;;1.60;99.90;;;;;;5063844;28;19919;-60
2023/01/22 05:38:03;;;;;;;;;;;1.60;99.90;;;;;;5069262;28;20293;-62
2023/01/22 05:40:28;;;;;;;;;;;1.60;99.90;;;;;;5066594;28;19917;-58
2023/01/22 05:42:54;;;;;;;;;;;1.70;99.90;;;;;;5067402;28;19916;-59
2023/01/22 05:45:19;;;;;;;;;;;1.60;99.90;;;;;;5067703;28;19936;-61
2023/01/22 05:47:50;;;;;;;;;;;1.70;99.90;;;;;;5062936;28;20075;-61
2023/01/22 05:50:15;;;;;;;;;;;1.60;99.90;;;;;;5064161;28;19920;-61
2023/01/22 05:52:41;;;;;;;;;;;1.60;99.90;;;;;;5064106;28;19919;-61
2023/01/22 05:55:06;;;;;;;;;;;1.60;99.90;;;;;;5066851;28;19916;-60
2023/01/22 05:57:34;;;;;;;;;;;1.60;99.90;;;;;;5060599;28;20200;-61
2023/01/22 05:59:59;;;;;;;;;;;1.60;99.90;;;;;;5069046;28;19966;-58
2023/01/22 06:02:24;;;;;;;;;;;1.60;99.90;;;;;;5065350;28;19921;-61
2023/01/22 06:04:50;;;;;;;;;;;1.60;99.90;;;;;;5065510;28;20387;-61
2023/01/22 06:07:15;;;;;;;;;;;1.60;99.90;;;;;;5064076;28;19920;-61
2023/01/22 06:09:41;;;;;;;;;;;1.60;99.90;;;;;;5067934;28;19913;-60
2023/01/22 06:12:06;;;;;;;;;;;1.60;99.90;;;;;;5067476;28;20366;-59
2023/01/22 06:14:32;;;;;;;;;;;1.60;99.90;;;;;;5068474;28;20382;-60
2023/01/22 06:16:57;;;;;;;;;;;1.60;99.90;;;;;;5060677;28;19983;-59
2023/01/22 06:19:23;;;;;;;;;;;1.60;99.90;;;;;;5070289;28;19920;-61
2023/01/22 06:21:48;;;;;;;;;;;1.60;99.90;;;;;;5061578;28;20398;-61
2023/01/22 06:24:14;;;;;;;;;;;1.60;99.90;;;;;;5068225;28;19916;-60
2023/01/22 06:26:39;;;;;;;;;;;1.60;99.90;;;;;;5069792;28;19912;-61
2023/01/22 06:29:05;;;;;;;;;;;1.60;99.90;;;;;;5062308;28;19916;-61
2023/01/22 06:31:31;;;;;;;;;;;1.60;99.90;;;;;;5066393;28;19923;-61
2023/01/22 06:33:56;;;;;;;;;;;1.60;99.90;;;;;;5064819;28;19924;-61
2023/01/22 06:36:22;;;;;;;;;;;1.60;99.90;;;;;;5064030;28;19912;-60
2023/01/22 06:38:48;;;;;;;;;;;1.60;99.90;;;;;;5066263;28;19965;-60
2023/01/22 06:41:13;;;;;;;;;;;1.60;99.90;;;;;;5066152;28;19927;-60
2023/01/22 06:43:39;;;;;;;;;;;1.60;99.90;;;;;;5060100;28;20409;-61
2023/01/22 06:46:04;;;;;;;;;;;1.60;99.90;;;;;;5062351;28;20337;-61
2023/01/22 06:48:30;;;;;;;;;;;1.60;99.90;;;;;;5065247;28;19916;-61
2023/01/22 06:50:56;;;;;;;;;;;1.60;99.90;;;;;;5066626;28;19916;-62
2023/01/22 06:53:21;;;;;;;;;;;1.60;99.90;;;;;;5064960;28;20371;-61
2023/01/22 06:55:46;;;;;;;;;;;1.60;99.90;;;;;;5064715;28;20316;-59
2023/01/22 06:58:12;;;;;;;;;;;1.60;99.90;;;;;;5064744;28;20342;-61
2023/01/22 07:00:37;;;;;;;;;;;1.60;99.90;;;;;;5062129;28;19920;-62
2023/01/22 07:03:06;;;;;;;;;;;1.60;99.90;;;;;;5061172;28;19917;-60
2023/01/22 07:05:32;;;;;;;;;;;1.60;99.90;;;;;;5065189;28;19966;-60
2023/01/22 07:07:58;;;;;;;;;;;1.60;99.90;;;;;;5061967;28;19916;-61
2023/01/22 07:10:23;;;;;;;;;;;1.60;99.90;;;;;;5063182;28;19912;-61
2023/01/22 07:12:52;;;;;;;;;;;1.60;99.90;;;;;;5068965;28;20451;-61
2023/01/22 07:15:18;;;;;;;;;;;1.60;99.90;;;;;;5065438;28;19920;-59
2023/01/22 07:17:48;;;;;;;;;;;1.60;99.90;;;;;;5066464;28;19913;-61
2023/01/22 07:20:13;;;;;;;;;;;1.60;99.90;;;;;;5063504;28;20306;-60
2023/01/22 07:22:39;;;;;;;;;;;1.60;99.90;;;;;;5064940;28;19995;-59
2023/01/22 07:25:04;;;;;;;;;;;1.60;99.90;;;;;;5063594;28;19966;-61
2023/01/22 07:27:31;;;;;;;;;;;1.60;99.90;;;;;;5063449;28;19974;-61
2023/01/22 07:29:57;;;;;;;;;;;1.60;99.90;;;;;;5064067;28;19991;-60
2023/01/22 07:32:22;;;;;;;;;;;1.60;99.90;;;;;;5065337;28;20353;-61
2023/01/22 07:34:48;;;;;;;;;;;1.60;99.90;;;;;;5065234;28;19912;-60
2023/01/22 07:37:13;;;;;;;;;;;1.50;99.90;;;;;;5068038;28;20009;-61
2023/01/22 07:39:39;;;;;;;;;;;1.50;99.90;;;;;;5066217;28;19919;-60
2023/01/22 07:42:04;;;;;;;;;;;1.50;99.90;;;;;;5065104;28;20125;-61
2023/01/22 07:44:30;;;;;;;;;;;1.50;99.90;;;;;;5067220;28;19995;-62
2023/01/22 07:46:55;;;;;;;;;;;1.40;99.90;;;;;;5062316;28;19924;-61
2023/01/22 07:49:21;;;;;;;;;;;1.50;99.90;;;;;;5064599;28;19916;-61
2023/01/22 07:51:46;;;;;;;;;;;1.50;99.90;;;;;;5063692;28;19917;-61
2023/01/22 07:54:12;;;;;;;;;;;1.50;99.90;;;;;;5064332;28;19912;-61
2023/01/22 07:56:37;;;;;;;;;;;1.50;99.90;;;;;;5062329;28;19922;-61
2023/01/22 07:59:03;;;;;;;;;;;1.50;99.90;;;;;;5063528;28;20366;-62
2023/01/22 08:01:29;;;;;;;;;;;1.50;99.90;;;;;;5061015;28;19982;-61
2023/01/22 08:03:56;;;;;;;;;;;1.50;99.90;;;;;;5063762;28;19921;-61
2023/01/22 08:06:22;;;;;;;;;;;1.50;99.90;;;;;;5059436;28;19919;-61
2023/01/22 08:08:47;;;;;;;;;;;1.50;99.90;;;;;;5060404;28;19917;-62
2023/01/22 08:11:13;;;;;;;;;;;1.50;99.90;;;;;;5064177;28;19913;-61
2023/01/22 08:13:38;;;;;;;;;;;1.60;99.90;;;;;;5059845;28;19913;-59
2023/01/22 08:16:04;;;;;;;;;;;1.60;99.90;;;;;;5062196;28;20001;-62
2023/01/22 08:18:29;;;;;;;;;;;1.70;99.90;;;;;;5062915;28;19947;-61
2023/01/22 08:20:58;;;;;;;;;;;1.70;99.90;;;;;;5065469;28;19981;-62
2023/01/22 08:23:23;;;;;;;;;;;1.70;99.90;;;;;;5060441;28;20375;-62
2023/01/22 08:25:49;;;;;;;;;;;1.70;99.90;;;;;;5059731;28;19927;-61
2023/01/22 08:28:14;;;;;;;;;;;1.70;99.90;;;;;;5057970;28;20090;-61
2023/01/22 08:30:40;;;;;;;;;;;1.70;99.90;;;;;;5062915;28;20382;-61
2023/01/22 08:33:06;;;;;;;;;;;1.70;99.90;;;;;;5057894;28;19916;-61
2023/01/22 08:35:32;;;;;;;;;;;1.70;99.90;;;;;;5063958;28;19918;-62
2023/01/22 08:37:58;;;;;;;;;;;1.60;99.90;;;;;;5065291;28;19919;-59
2023/01/22 08:40:23;;;;;;;;;;;1.70;99.90;;;;;;5067995;28;19919;-63
2023/01/22 08:42:49;;;;;;;;;;;1.70;99.90;;;;;;5067551;28;19917;-62
2023/01/22 08:45:14;;;;;;;;;;;1.70;99.90;;;;;;5065320;28;19913;-62
2023/01/22 08:47:40;;;;;;;;;;;1.70;99.90;;;;;;5067773;28;19912;-61
2023/01/22 08:50:06;;;;;;;;;;;1.70;99.90;;;;;;5066215;28;19924;-63
2023/01/22 08:52:31;;;;;;;;;;;1.80;99.90;;;;;;5063354;28;19916;-63
2023/01/22 08:54:56;;;;;;;;;;;1.80;99.90;;;;;;5064095;28;19967;-63
2023/01/22 08:57:22;;;;;;;;;;;1.70;99.90;;;;;;5066604;28;19912;-64
2023/01/22 08:59:47;;;;;;;;;;;1.80;99.90;;;;;;5066051;28;20398;-63
2023/01/22 09:02:13;;;;;;;;;;;1.80;99.90;;;;;;5069649;28;20332;-63
2023/01/22 09:04:38;;;;;;;;;;;1.80;99.90;;;;;;5065709;28;19919;-57
2023/01/22 09:07:04;;;;;;;;;;;1.90;99.90;;;;;;5064766;28;20375;-63
2023/01/22 09:09:29;;;;;;;;;;;1.90;99.90;;;;;;5065067;28;19971;-63
2023/01/22 09:11:55;;;;;;;;;;;1.90;99.90;;;;;;5065484;28;19913;-62
2023/01/22 09:14:20;;;;;;;;;;;1.80;99.90;;;;;;5064124;28;19988;-62
2023/01/22 09:16:46;;;;;;;;;;;1.90;99.90;;;;;;5064768;28;19939;-63
2023/01/22 09:19:11;;;;;;;;;;;1.90;99.90;;;;;;5069344;28;19920;-62
2023/01/22 09:21:37;;;;;;;;;;;1.90;99.90;;;;;;5067338;28;19912;-62
2023/01/22 09:24:03;;;;;;;;;;;1.90;99.90;;;;;;5064213;28;20374;-63
2023/01/22 09:26:28;;;;;;;;;;;1.90;99.90;;;;;;5064862;28;20382;-62
2023/01/22 09:28:54;;;;;;;;;;;1.90;99.90;;;;;;5068036;28;19913;-63
2023/01/22 09:31:19;;;;;;;;;;;1.90;99.90;;;;;;5068709;28;20827;-62
2023/01/22 09:33:45;;;;;;;;;;;1.90;99.90;;;;;;5076338;28;19912;-62
2023/01/22 09:36:12;;;;;;;;;;;1.90;99.90;;;;;;5070457;28;19916;-63
2023/01/22 09:38:37;;;;;;;;;;;1.90;99.90;;;;;;5072802;28;19942;-63
2023/01/22 09:41:15;;;;;;;;;;;1.90;99.90;;;;;;5064654;28;20558;-63
2023/01/22 09:43:45;;;;;;;;;;;1.90;99.90;;;;;;5068529;28;19917;-63
2023/01/22 09:46:18;;;;;;;;;;;1.90;99.90;;;;;;5066129;28;19917;-63
2023/01/22 09:48:46;;;;;;;;;;;1.80;99.90;;;;;;5065129;28;19917;-63
2023/01/22 09:51:15;;;;;;;;;;;1.80;99.90;;;;;;5066943;28;19918;-60
2023/01/22 09:53:41;;;;;;;;;;;1.80;99.90;;;;;;5061451;28;19995;-61
2023/01/22 09:56:13;;;;;;;;;;;1.80;99.90;;;;;;5062896;28;19912;-62
2023/01/22 09:58:38;;;;;;;;;;;1.80;99.90;;;;;;5061760;28;19924;-63
2023/01/22 10:01:04;;;;;;;;;;;1.80;99.90;;;;;;5064663;28;20440;-62
2023/01/22 10:03:30;;;;;;;;;;;1.90;99.90;;;;;;5066377;28;19916;-62
2023/01/22 10:05:58;;;;;;;;;;;1.90;99.90;;;;;;5064078;28;19921;-62
2023/01/22 10:08:42;;;;;;;;;;;2.00;99.90;;;;;;5066835;28;20348;-63
2023/01/22 10:11:10;;;;;;;;;;;2.00;99.90;;;;;;5064563;28;19958;-63
2023/01/22 10:13:36;;;;;;;;;;;2.00;99.90;;;;;;5062958;28;20011;-63
2023/01/22 10:16:02;;;;;;;;;;;2.00;99.90;;;;;;5062909;28;19962;-63
2023/01/22 10:18:28;;;;;;;;;;;2.00;99.90;;;;;;5061965;28;19917;-62
2023/01/22 10:20:54;;;;;;;;;;;2.10;99.90;;;;;;5065709;28;20380;-62
2023/01/22 10:23:20;;;;;;;;;;;2.10;99.90;;;;;;5066988;28;19985;-63
2023/01/22 10:25:46;;;;;;;;;;;2.20;99.90;;;;;;5066865;28;19943;-62
2023/01/22 10:28:13;;;;;;;;;;;2.20;99.90;;;;;;5059641;28;20370;-63
2023/01/22 10:30:45;;;;;;;;;;;2.20;99.90;;;;;;5062676;28;19912;-63
2023/01/22 10:33:21;;;;;;;;;;;2.20;99.90;;;;;;5066805;28;20302;-60
2023/01/22 10:35:51;;;;;;;;;;;2.20;99.90;;;;;;5068858;28;20294;-63
2023/01/22 10:38:20;;;;;;;;;;;2.20;99.90;;;;;;5059882;28;19920;-63
2023/01/22 10:40:50;;;;;;;;;;;2.20;99.90;;;;;;5064433;28;19917;-63
2023/01/22 10:43:16;;;;;;;;;;;2.30;99.90;;;;;;5061965;28;19920;-62
2023/01/22 10:45:51;;;;;;;;;;;2.40;99.90;;;;;;5065325;28;20278;-64
2023/01/22 10:48:17;;;;;;;;;;;2.50;99.90;;;;;;5059069;28;19921;-62
2023/01/22 10:50:44;;;;;;;;;;;2.50;99.90;;;;;;5058041;23;19932;-59
2023/01/22 10:53:32;;;;;;;;;;;2.50;99.90;;;;;;5026852;28;20375;-59
2023/01/22 10:55:59;;;;;;;;;;;2.50;99.90;;;;;;5026931;28;19989;-60
2023/01/22 10:58:28;;;;;;;;;;;2.50;99.90;;;;;;5032775;28;19928;-60
2023/01/22 11:00:55;;;;;;;;;;;2.50;99.90;;;;;;5031222;28;19959;-60
2023/01/22 11:03:22;;;;;;;;;;;2.50;99.90;;;;;;5033689;28;19925;-61
2023/01/22 11:05:51;;;;;;;;;;;2.50;99.90;;;;;;5028619;28;19917;-59
2023/01/22 11:08:18;;;;;;;;;;;2.50;99.90;;;;;;5028350;28;19921;-60
2023/01/22 11:10:47;;;;;;;;;;;2.50;99.90;;;;;;5029121;28;20353;-60
2023/01/22 11:13:24;;;;;;;;;;;2.50;99.90;;;;;;5035923;28;19921;-61
2023/01/22 11:15:56;;;;;;;;;;;2.50;99.90;;;;;;5025428;28;19920;-60
2023/01/22 11:18:30;;;;;;;;;;;2.50;99.90;;;;;;5026182;28;20371;-59
2023/01/22 11:20:57;;;;;;;;;;;2.60;99.90;;;;;;5027916;28;20390;-58
2023/01/22 11:23:41;;;;;;;;;;;2.60;99.90;;;;;;5033984;28;19923;-58
2023/01/22 11:26:23;;;;;;;;;;;2.60;99.90;;;;;;5030901;28;19927;-60
2023/01/22 11:28:54;;;;;;;;;;;2.70;99.90;;;;;;5028360;28;19992;-60
2023/01/22 11:31:46;;;;;;;;;;;2.70;99.90;;;;;;5027881;28;19935;-60
2023/01/22 11:34:30;;;;;;;;;;;2.70;99.90;;;;;;5024812;28;20436;-59
2023/01/22 11:36:55;;;;;;;;;;;2.70;99.90;;;;;;5026891;28;20018;-60
2023/01/22 11:39:27;;;;;;;;;;;2.70;99.90;;;;;;5017436;28;19921;-59
2023/01/22 11:42:07;;;;;;;;;;;2.70;99.90;;;;;;5020970;28;19964;-60
2023/01/22 11:44:55;;;;;;;;;;;2.70;99.90;;;;;;5029527;28;20330;-60
2023/01/22 11:47:24;;;;;;;;;;;2.80;99.90;;;;;;5029189;28;20341;-60
2023/01/22 11:49:49;;;;;;;;;;;2.80;99.90;;;;;;5027173;28;19925;-60
2023/01/22 11:52:44;;;;;;;;;;;2.80;99.90;;;;;;5020983;28;19991;-59
2023/01/22 11:55:19;;;;;;;;;;;2.80;99.90;;;;;;5003916;28;19920;-58
2023/01/22 11:57:55;;;;;;;;;;;2.80;99.90;;;;;;5027555;28;19964;-59
2023/01/22 12:00:30;;;;;;;;;;;2.80;99.90;;;;;;5024584;28;19967;-59
2023/01/22 12:03:17;;;;;;;;;;;2.80;99.90;;;;;;5023892;28;19917;-58
2023/01/22 12:05:49;;;;;;;;;;;2.90;99.90;;;;;;5020906;28;19921;-59
2023/01/22 12:08:41;;;;;;;;;;;2.90;99.90;;;;;;5020903;28;19928;-59
2023/01/22 12:11:09;;;;;;;;;;;2.80;99.90;;;;;;5023899;28;19921;-56
2023/01/22 12:13:35;;;;;;;;;;;2.80;99.90;;;;;;5031787;28;19913;-59
2023/01/22 12:16:01;;;;;;;;;;;2.80;99.90;;;;;;5029105;28;20004;-60
2023/01/22 12:18:52;;;;;;;;;;;2.80;99.90;;;;;;5025955;28;19978;-59
2023/01/22 12:21:42;;;;;;;;;;;2.80;99.90;;;;;;5024201;28;19964;-59
2023/01/22 12:24:11;;;;;;;;;;;2.80;99.90;;;;;;5031859;28;19917;-59
2023/01/22 12:26:42;;;;;;;;;;;2.90;99.90;;;;;;5025651;28;20418;-59
2023/01/22 12:29:16;;;;;;;;;;;2.90;99.90;;;;;;5029982;28;20022;-59
2023/01/22 12:31:48;;;;;;;;;;;2.80;99.90;;;;;;5026296;28;19975;-58
2023/01/22 12:34:23;;;;;;;;;;;2.90;99.90;;;;;;5028124;28;19920;-60
2023/01/22 12:36:49;;;;;;;;;;;2.80;99.90;;;;;;5027653;28;19913;-56
2023/01/22 12:39:22;;;;;;;;;;;2.80;99.90;;;;;;5025240;28;19921;-56
2023/01/22 12:41:52;;;;;;;;;;;2.80;99.90;;;;;;5026747;28;19956;-57
2023/01/22 12:44:39;;;;;;;;;;;2.80;99.90;;;;;;5031100;28;20102;-56
2023/01/22 12:47:18;;;;;;;;;;;2.80;99.90;;;;;;5020929;28;20020;-57
2023/01/22 12:49:45;;;;;;;;;;;2.70;99.90;;;;;;5024052;28;19970;-56
2023/01/22 12:52:30;;;;;;;;;;;2.80;99.90;;;;;;5030780;28;20298;-58
2023/01/22 12:54:57;;;;;;;;;;;2.80;99.90;;;;;;5020992;28;20368;-58
2023/01/22 12:57:23;;;;;;;;;;;2.80;99.90;;;;;;5032574;28;19919;-58
2023/01/22 12:59:53;;;;;;;;;;;2.80;99.90;;;;;;5027004;28;19924;-59
2023/01/22 13:02:18;;;;;;;;;;;2.80;99.90;;;;;;5026254;28;19917;-55
2023/01/22 13:04:44;;;;;;;;;;;2.70;99.90;;;;;;5034060;28;19917;-58
2023/01/22 13:07:27;;;;;;;;;;;2.70;99.90;;;;;;5032162;28;19917;-58
2023/01/22 13:10:22;;;;;;;;;;;2.70;99.90;;;;;;5029370;28;19913;-58
2023/01/22 13:12:59;;;;;;;;;;;2.70;99.90;;;;;;5020119;28;19928;-59
2023/01/22 13:15:31;;;;;;;;;;;2.70;99.90;;;;;;5032235;28;19982;-59
2023/01/22 13:18:01;;;;;;;;;;;2.70;99.90;;;;;;5040570;28;19940;-59
2023/01/22 13:20:27;;;;;;;;;;;2.70;99.90;;;;;;5030894;28;19917;-58
2023/01/22 13:22:54;;;;;;;;;;;2.70;99.90;;;;;;5034132;28;20000;-61
2023/01/22 13:25:23;;;;;;;;;;;2.70;99.90;;;;;;5045950;28;19935;-60
2023/01/22 13:27:49;;;;;;;;;;;2.70;99.90;;;;;;5045606;28;19917;-59
2023/01/22 13:30:16;;;;;;;;;;;2.70;99.90;;;;;;5034653;28;19912;-60
2023/01/22 13:32:42;;;;;;;;;;;2.70;99.90;;;;;;5032212;28;20323;-59
2023/01/22 13:35:10;;;;;;;;;;;2.70;99.90;;;;;;5035940;28;19909;-55
2023/01/22 13:37:37;;;;;;;;;;;2.70;99.90;;;;;;5036967;28;19924;-60
2023/01/22 13:40:23;;;;;;;;;;;2.70;99.90;;;;;;5032100;28;20410;-61
2023/01/22 13:42:49;;;;;;;;;;;2.70;99.90;;;;;;5031328;28;19917;-59
2023/01/22 13:45:18;;;;;;;;;;;2.70;99.90;;;;;;5036658;28;19916;-60
2023/01/22 13:47:43;;;;;;;;;;;2.70;99.90;;;;;;5030183;28;20395;-59
2023/01/22 13:50:19;;;;;;;;;;;2.70;99.90;;;;;;5029615;28;19980;-61
2023/01/22 13:52:44;;;;;;;;;;;2.80;99.90;;;;;;5037367;28;20418;-59
2023/01/22 13:55:14;;;;;;;;;;;2.80;99.90;;;;;;5032558;28;19914;-60
2023/01/22 13:57:53;;;;;;;;;;;2.80;99.90;;;;;;5025469;28;20001;-59
2023/01/22 14:00:22;;;;;;;;;;;2.90;99.90;;;;;;5036372;28;20454;-59
2023/01/22 14:02:48;;;;;;;;;;;2.80;99.90;;;;;;5034649;28;20591;-58
2023/01/22 14:05:23;;;;;;;;;;;2.80;99.90;;;;;;5029490;28;19921;-58
2023/01/22 14:07:49;;;;;;;;;;;2.80;99.90;;;;;;5030320;28;19913;-60
2023/01/22 14:10:16;;;;;;;;;;;2.90;99.90;;;;;;5027249;28;19924;-61
2023/01/22 14:12:42;;;;;;;;;;;2.90;99.90;;;;;;5032343;28;19913;-61
2023/01/22 14:15:18;;;;;;;;;;;2.90;99.90;;;;;;5031589;28;19991;-60
2023/01/22 14:17:44;;;;;;;;;;;2.90;99.90;;;;;;5028478;28;19970;-60
2023/01/22 14:20:10;;;;;;;;;;;2.90;99.90;;;;;;5028417;28;19917;-60
2023/01/22 14:22:35;;;;;;;;;;;2.90;99.90;;;;;;5024611;28;19928;-60
2023/01/22 14:25:01;;;;;;;;;;;2.90;99.90;;;;;;5034034;28;20007;-59
2023/01/22 14:27:39;;;;;;;;;;;2.90;99.90;;;;;;5024193;28;19920;-60
2023/01/22 14:30:04;;;;;;;;;;;2.90;99.90;;;;;;5028069;28;19913;-57
2023/01/22 14:32:30;;;;;;;;;;;2.90;99.90;;;;;;5033623;28;19917;-59
2023/01/22 14:34:56;;;;;;;;;;;2.90;99.90;;;;;;5029194;28;19913;-58
2023/01/22 14:37:21;;;;;;;;;;;2.90;99.90;;;;;;5030521;28;19940;-59
2023/01/22 14:39:47;;;;;;;;;;;2.90;99.90;;;;;;5028871;28;19913;-60
2023/01/22 14:42:12;;;;;;;;;;;2.90;99.90;;;;;;5027058;28;20414;-59